sensor_id;sensor_type;location;lat;lon;timestamp;temperature;humidity
78303;DHT22;67559;24.140;-110.296;2023-12-07T05:57:51;20.50;57.70
78303;DHT22;67559;24.140;-110.296;2023-12-07T06:03:11;20.20;56.70
78303;DHT22;67559;24.140;-110.296;2023-12-07T06:05:42;20.00;57.00
78303;DHT22;67559;24.140;-110.296;2023-12-07T06:08:14;19.80;57.00
78303;DHT22;67559;24.140;-110.296;2023-12-07T06:10:45;19.70;57.20
78303;DHT22;67559;24.140;-110.296;2023-12-07T06:13:17;19.60;57.30
78303;DHT22;67559;24.140;-110.296;2023-12-07T06:15:48;19.40;57.20
78303;DHT22;67559;24.140;-110.296;2023-12-07T06:18:19;19.30;57.20
78303;DHT22;67559;24.140;-110.296;2023-12-07T06:20:50;19.40;57.20
78303;DHT22;67559;24.140;-110.296;2023-12-07T06:25:51;19.30;57.30
78303;DHT22;67559;24.140;-110.296;2023-12-07T06:28:23;19.30;57.60
78303;DHT22;67559;24.140;-110.296;2023-12-07T06:30:54;19.20;57.70
78303;DHT22;67559;24.140;-110.296;2023-12-07T06:33:26;19.20;57.50
78303;DHT22;67559;24.140;-110.296;2023-12-07T06:35:57;19.20;57.50
78303;DHT22;67559;24.140;-110.296;2023-12-07T06:38:28;19.10;57.40
78303;DHT22;67559;24.140;-110.296;2023-12-07T06:41:36;19.20;57.60
78303;DHT22;67559;24.140;-110.296;2023-12-07T06:44:28;19.10;57.70
78303;DHT22;67559;24.140;-110.296;2023-12-07T06:46:59;19.00;58.00
78303;DHT22;67559;24.140;-110.296;2023-12-07T06:49:35;19.00;58.00
78303;DHT22;67559;24.140;-110.296;2023-12-07T06:52:06;19.10;58.30
78303;DHT22;67559;24.140;-110.296;2023-12-07T06:54:38;19.00;58.40
78303;DHT22;67559;24.140;-110.296;2023-12-07T06:57:09;19.00;58.60
78303;DHT22;67559;24.140;-110.296;2023-12-07T06:59:39;19.00;58.50
78303;DHT22;67559;24.140;-110.296;2023-12-07T07:02:11;19.00;58.80
78303;DHT22;67559;24.140;-110.296;2023-12-07T07:04:42;18.90;58.80
78303;DHT22;67559;24.140;-110.296;2023-12-07T07:07:13;18.90;58.80
78303;DHT22;67559;24.140;-110.296;2023-12-07T07:09:44;18.80;58.80
78303;DHT22;67559;24.140;-110.296;2023-12-07T07:12:15;18.70;58.60
78303;DHT22;67559;24.140;-110.296;2023-12-07T07:14:46;18.70;58.50
78303;DHT22;67559;24.140;-110.296;2023-12-07T07:17:18;18.70;58.50
78303;DHT22;67559;24.140;-110.296;2023-12-07T07:19:48;18.60;58.40
78303;DHT22;67559;24.140;-110.296;2023-12-07T07:22:19;18.60;58.70
78303;DHT22;67559;24.140;-110.296;2023-12-07T07:24:50;18.50;58.70
78303;DHT22;67559;24.140;-110.296;2023-12-07T07:27:21;18.40;58.70
78303;DHT22;67559;24.140;-110.296;2023-12-07T07:29:52;18.30;58.60
78303;DHT22;67559;24.140;-110.296;2023-12-07T07:32:23;18.30;58.40
78303;DHT22;67559;24.140;-110.296;2023-12-07T07:34:54;18.30;58.50
78303;DHT22;67559;24.140;-110.296;2023-12-07T07:37:25;18.30;58.60
78303;DHT22;67559;24.140;-110.296;2023-12-07T07:39:56;18.20;58.60
78303;DHT22;67559;24.140;-110.296;2023-12-07T07:42:29;18.20;58.60
78303;DHT22;67559;24.140;-110.296;2023-12-07T07:45:00;18.20;58.80
78303;DHT22;67559;24.140;-110.296;2023-12-07T07:47:30;18.20;58.90
78303;DHT22;67559;24.140;-110.296;2023-12-07T07:50:02;18.20;58.90
78303;DHT22;67559;24.140;-110.296;2023-12-07T07:53:09;18.10;59.00
78303;DHT22;67559;24.140;-110.296;2023-12-07T07:56:27;18.10;58.90
78303;DHT22;67559;24.140;-110.296;2023-12-07T07:58:58;18.00;59.00
78303;DHT22;67559;24.140;-110.296;2023-12-07T08:04:05;18.00;58.80
78303;DHT22;67559;24.140;-110.296;2023-12-07T08:06:36;18.10;58.70
78303;DHT22;67559;24.140;-110.296;2023-12-07T08:09:09;18.10;58.70
78303;DHT22;67559;24.140;-110.296;2023-12-07T08:11:40;18.10;58.70
78303;DHT22;67559;24.140;-110.296;2023-12-07T08:14:11;18.10;58.80
78303;DHT22;67559;24.140;-110.296;2023-12-07T08:16:46;18.10;58.90
78303;DHT22;67559;24.140;-110.296;2023-12-07T08:19:17;18.00;59.10
78303;DHT22;67559;24.140;-110.296;2023-12-07T08:21:48;18.00;59.10
78303;DHT22;67559;24.140;-110.296;2023-12-07T08:24:21;18.00;59.00
78303;DHT22;67559;24.140;-110.296;2023-12-07T08:26:52;17.80;58.80
78303;DHT22;67559;24.140;-110.296;2023-12-07T08:29:23;17.80;58.70
78303;DHT22;67559;24.140;-110.296;2023-12-07T08:31:55;17.70;58.40
78303;DHT22;67559;24.140;-110.296;2023-12-07T08:34:26;17.70;58.30
78303;DHT22;67559;24.140;-110.296;2023-12-07T08:36:58;17.60;58.20
78303;DHT22;67559;24.140;-110.296;2023-12-07T08:39:29;17.60;58.10
78303;DHT22;67559;24.140;-110.296;2023-12-07T08:41:59;17.60;58.00
78303;DHT22;67559;24.140;-110.296;2023-12-07T08:44:30;17.60;57.90
78303;DHT22;67559;24.140;-110.296;2023-12-07T08:47:01;17.60;57.90
78303;DHT22;67559;24.140;-110.296;2023-12-07T08:49:33;17.60;57.70
78303;DHT22;67559;24.140;-110.296;2023-12-07T08:52:04;17.60;57.50
78303;DHT22;67559;24.140;-110.296;2023-12-07T08:54:35;17.50;57.20
78303;DHT22;67559;24.140;-110.296;2023-12-07T08:57:40;17.50;56.90
78303;DHT22;67559;24.140;-110.296;2023-12-07T09:00:55;17.50;56.80
78303;DHT22;67559;24.140;-110.296;2023-12-07T09:03:30;17.60;56.90
78303;DHT22;67559;24.140;-110.296;2023-12-07T09:06:02;17.60;56.90
78303;DHT22;67559;24.140;-110.296;2023-12-07T09:08:34;17.70;56.80
78303;DHT22;67559;24.140;-110.296;2023-12-07T09:11:05;17.70;56.80
78303;DHT22;67559;24.140;-110.296;2023-12-07T09:13:37;17.70;56.90
78303;DHT22;67559;24.140;-110.296;2023-12-07T09:16:08;17.70;56.90
78303;DHT22;67559;24.140;-110.296;2023-12-07T09:18:40;17.70;56.80
78303;DHT22;67559;24.140;-110.296;2023-12-07T09:21:12;17.70;56.80
78303;DHT22;67559;24.140;-110.296;2023-12-07T09:23:43;17.60;56.80
78303;DHT22;67559;24.140;-110.296;2023-12-07T09:26:51;17.60;57.00
78303;DHT22;67559;24.140;-110.296;2023-12-07T09:30:19;17.60;57.10
78303;DHT22;67559;24.140;-110.296;2023-12-07T09:33:24;17.50;57.10
78303;DHT22;67559;24.140;-110.296;2023-12-07T09:36:49;17.50;57.10
78303;DHT22;67559;24.140;-110.296;2023-12-07T09:40:14;17.40;57.10
78303;DHT22;67559;24.140;-110.296;2023-12-07T09:43:32;17.50;57.10
78303;DHT22;67559;24.140;-110.296;2023-12-07T09:46:21;17.40;56.90
78303;DHT22;67559;24.140;-110.296;2023-12-07T09:48:53;17.40;56.90
78303;DHT22;67559;24.140;-110.296;2023-12-07T09:51:28;17.40;56.80
78303;DHT22;67559;24.140;-110.296;2023-12-07T09:54:02;17.40;56.80
78303;DHT22;67559;24.140;-110.296;2023-12-07T09:56:38;17.50;56.80
78303;DHT22;67559;24.140;-110.296;2023-12-07T09:59:09;17.50;56.60
78303;DHT22;67559;24.140;-110.296;2023-12-07T10:01:41;17.60;56.90
78303;DHT22;67559;24.140;-110.296;2023-12-07T10:04:24;17.70;56.80
78303;DHT22;67559;24.140;-110.296;2023-12-07T10:06:58;17.70;57.10
78303;DHT22;67559;24.140;-110.296;2023-12-07T10:09:30;17.80;56.90
78303;DHT22;67559;24.140;-110.296;2023-12-07T10:12:05;17.70;57.20
78303;DHT22;67559;24.140;-110.296;2023-12-07T10:14:37;17.60;57.20
78303;DHT22;67559;24.140;-110.296;2023-12-07T10:17:08;17.50;57.10
78303;DHT22;67559;24.140;-110.296;2023-12-07T10:19:40;17.50;57.00
78303;DHT22;67559;24.140;-110.296;2023-12-07T10:22:16;17.40;57.20
78303;DHT22;67559;24.140;-110.296;2023-12-07T10:24:47;17.30;57.20
78303;DHT22;67559;24.140;-110.296;2023-12-07T10:27:18;17.30;57.10
78303;DHT22;67559;24.140;-110.296;2023-12-07T10:29:51;17.30;57.20
78303;DHT22;67559;24.140;-110.296;2023-12-07T10:32:23;17.20;57.20
78303;DHT22;67559;24.140;-110.296;2023-12-07T10:34:54;17.20;57.20
78303;DHT22;67559;24.140;-110.296;2023-12-07T10:37:27;17.20;57.20
78303;DHT22;67559;24.140;-110.296;2023-12-07T10:39:58;17.10;57.20
78303;DHT22;67559;24.140;-110.296;2023-12-07T10:42:32;17.10;57.30
78303;DHT22;67559;24.140;-110.296;2023-12-07T10:45:06;17.10;57.30
78303;DHT22;67559;24.140;-110.296;2023-12-07T10:47:39;17.10;57.30
78303;DHT22;67559;24.140;-110.296;2023-12-07T10:50:11;17.10;57.40
78303;DHT22;67559;24.140;-110.296;2023-12-07T10:52:54;17.10;57.50
78303;DHT22;67559;24.140;-110.296;2023-12-07T10:55:30;17.20;57.30
78303;DHT22;67559;24.140;-110.296;2023-12-07T10:58:03;17.30;57.50
78303;DHT22;67559;24.140;-110.296;2023-12-07T11:00:42;17.30;57.40
78303;DHT22;67559;24.140;-110.296;2023-12-07T11:03:17;17.40;57.10
78303;DHT22;67559;24.140;-110.296;2023-12-07T11:05:50;17.30;57.10
78303;DHT22;67559;24.140;-110.296;2023-12-07T11:08:38;17.30;57.30
78303;DHT22;67559;24.140;-110.296;2023-12-07T11:11:12;17.30;57.30
78303;DHT22;67559;24.140;-110.296;2023-12-07T11:16:44;17.20;56.70
78303;DHT22;67559;24.140;-110.296;2023-12-07T11:19:46;17.10;56.40
78303;DHT22;67559;24.140;-110.296;2023-12-07T11:22:17;17.00;56.20
78303;DHT22;67559;24.140;-110.296;2023-12-07T11:24:59;17.00;56.00
78303;DHT22;67559;24.140;-110.296;2023-12-07T11:27:33;16.90;55.70
78303;DHT22;67559;24.140;-110.296;2023-12-07T11:30:04;16.80;55.60
78303;DHT22;67559;24.140;-110.296;2023-12-07T11:32:36;16.80;55.40
78303;DHT22;67559;24.140;-110.296;2023-12-07T11:35:11;16.80;55.00
78303;DHT22;67559;24.140;-110.296;2023-12-07T11:38:02;16.80;54.60
78303;DHT22;67559;24.140;-110.296;2023-12-07T11:40:39;16.70;54.30
78303;DHT22;67559;24.140;-110.296;2023-12-07T11:46:07;16.70;54.00
78303;DHT22;67559;24.140;-110.296;2023-12-07T11:48:38;16.70;53.90
78303;DHT22;67559;24.140;-110.296;2023-12-07T11:51:10;16.70;54.00
78303;DHT22;67559;24.140;-110.296;2023-12-07T11:53:41;16.70;54.00
78303;DHT22;67559;24.140;-110.296;2023-12-07T11:56:13;16.60;54.10
78303;DHT22;67559;24.140;-110.296;2023-12-07T11:58:48;16.50;54.10
78303;DHT22;67559;24.140;-110.296;2023-12-07T12:01:19;16.50;54.00
78303;DHT22;67559;24.140;-110.296;2023-12-07T12:03:50;16.40;54.10
78303;DHT22;67559;24.140;-110.296;2023-12-07T12:06:25;16.40;54.20
78303;DHT22;67559;24.140;-110.296;2023-12-07T12:08:57;16.30;54.30
78303;DHT22;67559;24.140;-110.296;2023-12-07T12:11:28;16.30;54.30
78303;DHT22;67559;24.140;-110.296;2023-12-07T12:13:59;16.30;54.30
78303;DHT22;67559;24.140;-110.296;2023-12-07T12:16:30;16.20;54.50
78303;DHT22;67559;24.140;-110.296;2023-12-07T12:19:02;16.20;54.50
78303;DHT22;67559;24.140;-110.296;2023-12-07T12:21:44;16.20;54.50
78303;DHT22;67559;24.140;-110.296;2023-12-07T12:24:15;16.20;54.80
78303;DHT22;67559;24.140;-110.296;2023-12-07T12:26:48;16.10;54.60
78303;DHT22;67559;24.140;-110.296;2023-12-07T12:29:20;16.10;54.40
78303;DHT22;67559;24.140;-110.296;2023-12-07T12:31:51;16.00;54.70
78303;DHT22;67559;24.140;-110.296;2023-12-07T12:34:23;16.10;54.80
78303;DHT22;67559;24.140;-110.296;2023-12-07T12:36:57;16.00;54.70
78303;DHT22;67559;24.140;-110.296;2023-12-07T12:39:30;16.00;54.70
78303;DHT22;67559;24.140;-110.296;2023-12-07T12:42:02;15.90;54.50
78303;DHT22;67559;24.140;-110.296;2023-12-07T12:44:34;16.00;54.30
78303;DHT22;67559;24.140;-110.296;2023-12-07T12:47:08;15.90;54.20
78303;DHT22;67559;24.140;-110.296;2023-12-07T12:49:40;16.00;54.20
78303;DHT22;67559;24.140;-110.296;2023-12-07T12:52:16;16.00;54.20
78303;DHT22;67559;24.140;-110.296;2023-12-07T12:54:48;16.10;54.40
78303;DHT22;67559;24.140;-110.296;2023-12-07T12:57:20;16.00;54.60
78303;DHT22;67559;24.140;-110.296;2023-12-07T12:59:53;16.10;54.60
78303;DHT22;67559;24.140;-110.296;2023-12-07T13:02:24;16.10;54.60
78303;DHT22;67559;24.140;-110.296;2023-12-07T13:04:55;16.20;54.60
78303;DHT22;67559;24.140;-110.296;2023-12-07T13:07:27;16.10;54.60
78303;DHT22;67559;24.140;-110.296;2023-12-07T13:09:59;16.00;54.60
78303;DHT22;67559;24.140;-110.296;2023-12-07T13:12:31;16.10;54.50
78303;DHT22;67559;24.140;-110.296;2023-12-07T13:15:04;16.10;54.50
78303;DHT22;67559;24.140;-110.296;2023-12-07T13:17:35;16.10;54.60
78303;DHT22;67559;24.140;-110.296;2023-12-07T13:20:08;16.10;54.70
78303;DHT22;67559;24.140;-110.296;2023-12-07T13:22:41;16.20;54.70
78303;DHT22;67559;24.140;-110.296;2023-12-07T13:25:13;16.20;55.00
78303;DHT22;67559;24.140;-110.296;2023-12-07T13:27:44;16.30;55.10
78303;DHT22;67559;24.140;-110.296;2023-12-07T13:30:16;16.30;55.10
78303;DHT22;67559;24.140;-110.296;2023-12-07T13:32:49;16.20;55.30
78303;DHT22;67559;24.140;-110.296;2023-12-07T13:35:20;16.20;55.40
78303;DHT22;67559;24.140;-110.296;2023-12-07T13:37:51;16.20;55.40
78303;DHT22;67559;24.140;-110.296;2023-12-07T13:40:22;16.30;55.30
78303;DHT22;67559;24.140;-110.296;2023-12-07T13:42:56;16.30;55.50
78303;DHT22;67559;24.140;-110.296;2023-12-07T13:45:27;16.20;55.50
78303;DHT22;67559;24.140;-110.296;2023-12-07T13:47:58;16.10;55.50
78303;DHT22;67559;24.140;-110.296;2023-12-07T13:50:29;16.10;55.30
78303;DHT22;67559;24.140;-110.296;2023-12-07T13:53:00;16.10;55.30
78303;DHT22;67559;24.140;-110.296;2023-12-07T13:55:32;16.10;55.40
78303;DHT22;67559;24.140;-110.296;2023-12-07T13:58:03;16.10;55.30
78303;DHT22;67559;24.140;-110.296;2023-12-07T14:00:37;16.10;55.50
78303;DHT22;67559;24.140;-110.296;2023-12-07T14:03:08;16.10;55.40
78303;DHT22;67559;24.140;-110.296;2023-12-07T14:05:50;16.10;55.40
78303;DHT22;67559;24.140;-110.296;2023-12-07T14:08:26;16.10;55.30
78303;DHT22;67559;24.140;-110.296;2023-12-07T14:11:01;16.50;50.90
78303;DHT22;67559;24.140;-110.296;2023-12-07T14:13:32;17.10;51.70
78303;DHT22;67559;24.140;-110.296;2023-12-07T14:16:03;17.10;54.90
78303;DHT22;67559;24.140;-110.296;2023-12-07T14:18:38;17.40;54.30
78303;DHT22;67559;24.140;-110.296;2023-12-07T14:21:09;17.30;56.30
78303;DHT22;67559;24.140;-110.296;2023-12-07T14:23:41;17.40;55.00
78303;DHT22;67559;24.140;-110.296;2023-12-07T14:26:15;17.80;55.90
78303;DHT22;67559;24.140;-110.296;2023-12-07T14:28:46;18.00;57.00
78303;DHT22;67559;24.140;-110.296;2023-12-07T14:31:17;17.70;58.10
78303;DHT22;67559;24.140;-110.296;2023-12-07T14:33:49;17.90;57.10
78303;DHT22;67559;24.140;-110.296;2023-12-07T14:36:20;18.10;57.10
78303;DHT22;67559;24.140;-110.296;2023-12-07T14:38:52;18.30;58.20
78303;DHT22;67559;24.140;-110.296;2023-12-07T14:41:23;18.30;58.00
